createdAt,value
2023-03-07T00:03:48.306Z,10.82
2023-03-07T00:08:56.205Z,8.43
2023-03-07T00:13:58.507Z,6.85
2023-03-07T00:19:00.818Z,5.95
2023-03-07T00:24:02.957Z,6.43
2023-03-07T00:29:07.608Z,5.85
2023-03-07T00:34:09.667Z,4.55
2023-03-07T00:39:11.936Z,4.15
2023-03-07T00:44:14.028Z,5.03
2023-03-07T00:49:16.164Z,4.72
2023-03-07T00:54:18.542Z,4.50
2023-03-07T00:59:20.716Z,4.35
2023-03-07T01:04:22.884Z,4.43
2023-03-07T01:09:25.108Z,4.65
2023-03-07T01:14:27.271Z,5.85
2023-03-07T01:19:29.424Z,5.15
2023-03-07T01:24:31.502Z,5.85
2023-03-07T01:29:33.792Z,5.22
2023-03-07T01:34:36.816Z,5.15
2023-03-07T01:39:38.875Z,5.18
2023-03-07T01:45:07.769Z,4.65
2023-03-07T01:50:22.196Z,4.70
2023-03-07T01:55:32.912Z,5.72
2023-03-07T02:00:45.077Z,4.40
2023-03-07T02:05:50.439Z,4.47
2023-03-07T02:10:52.823Z,4.55
2023-03-07T02:15:56.133Z,5.35
2023-03-07T02:21:12.232Z,6.00
2023-03-07T02:26:23.180Z,5.43
2023-03-07T02:31:25.977Z,4.18
2023-03-07T02:36:34.520Z,4.78
2023-03-07T02:41:50.509Z,4.65
2023-03-07T02:47:01.552Z,5.93
2023-03-07T02:52:04.922Z,5.80
2023-03-07T02:57:07.641Z,4.80
2023-03-07T03:02:10.104Z,4.90
2023-03-07T03:07:12.324Z,5.45
2023-03-07T03:12:14.458Z,6.07
2023-03-07T03:17:17.847Z,5.20
2023-03-07T03:22:20.638Z,4.63
2023-03-07T03:27:24.913Z,5.80
2023-03-07T03:32:27.901Z,4.10
2023-03-07T03:37:31.570Z,4.13
2023-03-07T03:42:34.167Z,4.53
2023-03-07T03:47:38.463Z,4.07
2023-03-07T03:52:40.998Z,4.40
2023-03-07T03:57:44.490Z,4.15
2023-03-07T04:02:47.405Z,4.38
2023-03-07T04:07:52.881Z,3.88
2023-03-07T04:12:55.716Z,3.40
2023-03-07T04:17:57.931Z,3.45
2023-03-07T04:23:00.262Z,4.70
2023-03-07T04:28:02.900Z,3.22
2023-03-07T04:33:05.441Z,2.80
2023-03-07T04:38:08.072Z,3.72
2023-03-07T04:43:10.581Z,3.10
2023-03-07T04:48:14.122Z,3.08
2023-03-07T04:53:18.827Z,3.25
2023-03-07T04:58:22.169Z,2.70
2023-03-07T05:03:26.285Z,2.88
2023-03-07T05:08:29.415Z,2.20
2023-03-07T05:13:32.825Z,2.55
2023-03-07T05:18:35.241Z,2.70
2023-03-07T05:23:38.024Z,2.67
2023-03-07T05:28:40.285Z,2.70
2023-03-07T05:33:43.185Z,2.88
2023-03-07T05:38:46.250Z,2.97
2023-03-07T05:43:48.557Z,3.42
2023-03-07T05:48:50.922Z,2.85
2023-03-07T05:53:53.140Z,2.40
2023-03-07T05:58:55.897Z,2.28
2023-03-07T06:03:58.359Z,2.67
2023-03-07T06:09:00.521Z,2.50
2023-03-07T06:14:03.116Z,2.15
2023-03-07T06:19:05.377Z,2.33
2023-03-07T06:24:08.012Z,3.10
2023-03-07T06:29:10.166Z,2.53
2023-03-07T06:34:13.004Z,2.53
2023-03-07T06:39:20.967Z,1.98
2023-03-07T06:44:25.159Z,2.72
2023-03-07T06:49:27.842Z,2.75
2023-03-07T06:54:30.109Z,2.65
2023-03-07T06:59:32.236Z,3.03
2023-03-07T07:04:34.531Z,2.40
2023-03-07T07:09:37.480Z,2.80
2023-03-07T07:14:39.874Z,4.50
2023-03-07T07:19:42.231Z,4.72
2023-03-07T07:24:44.583Z,5.28
2023-03-07T07:29:47.088Z,4.45
2023-03-07T07:34:49.830Z,2.92
2023-03-07T07:39:52.480Z,4.20
2023-03-07T07:44:54.756Z,3.47
2023-03-07T07:49:56.980Z,4.03
2023-03-07T07:54:59.335Z,3.67
2023-03-07T08:00:04.387Z,4.20
2023-03-07T08:05:14.202Z,3.05
2023-03-07T08:10:17.740Z,3.63
2023-03-07T08:15:21.751Z,2.55
2023-03-07T08:20:25.722Z,2.40
2023-03-07T08:25:27.796Z,2.65
2023-03-07T08:30:32.436Z,3.65
2023-03-07T08:35:34.570Z,3.10
2023-03-07T08:40:36.681Z,2.35
2023-03-07T08:45:40.601Z,2.92
2023-03-07T08:50:42.677Z,3.70
2023-03-07T08:55:44.831Z,3.13
2023-03-07T09:00:46.940Z,3.25
2023-03-07T09:05:49.260Z,3.65
2023-03-07T09:10:51.455Z,3.53
2023-03-07T09:15:54.577Z,4.20
2023-03-07T09:20:59.862Z,2.60
2023-03-07T09:26:03.405Z,2.45
2023-03-07T09:31:10.235Z,2.35
2023-03-07T09:36:13.476Z,1.90
2023-03-07T09:41:33.969Z,2.40
2023-03-07T09:46:47.653Z,1.80
2023-03-07T09:51:53.109Z,1.80
2023-03-07T09:56:59.133Z,1.90
2023-03-07T10:02:32.178Z,1.88
2023-03-07T10:07:35.712Z,2.20
2023-03-07T10:13:04.866Z,2.20
2023-03-07T10:18:21.605Z,2.15
2023-03-07T10:23:26.572Z,1.90
2023-03-07T10:28:36.494Z,1.83
2023-03-07T10:33:41.051Z,1.67
2023-03-07T10:39:16.644Z,2.13
2023-03-07T10:44:20.658Z,2.03
2023-03-07T10:49:31.590Z,1.70
2023-03-07T10:54:36.273Z,1.60
2023-03-07T10:59:40.892Z,3.10
2023-03-07T11:04:46.799Z,1.95
2023-03-07T11:09:48.937Z,2.78
2023-03-07T11:14:52.177Z,2.95
2023-03-07T11:19:58.316Z,2.70
2023-03-07T11:25:06.239Z,1.90
2023-03-07T11:30:18.963Z,1.70
2023-03-07T11:35:31.046Z,1.90
2023-03-07T11:40:47.120Z,1.83
2023-03-07T11:46:27.980Z,2.30
2023-03-07T11:51:59.597Z,2.70
2023-03-07T11:57:31.830Z,2.70
2023-03-07T12:03:07.827Z,2.50
2023-03-07T12:08:28.848Z,2.60
2023-03-07T12:14:09.816Z,2.33
2023-03-07T12:19:20.701Z,3.50
2023-03-07T12:24:31.522Z,1.98
2023-03-07T12:29:38.670Z,2.47
2023-03-07T12:34:46.346Z,1.73
2023-03-07T12:40:10.281Z,3.20
2023-03-07T12:45:18.695Z,2.00
2023-03-07T12:50:31.385Z,2.03
2023-03-07T12:55:41.457Z,2.47
2023-03-07T13:00:56.163Z,2.00
2023-03-07T13:05:58.518Z,2.50
2023-03-07T13:11:00.598Z,5.07
2023-03-07T13:16:04.997Z,2.35
2023-03-07T13:21:33.259Z,5.13
2023-03-07T13:26:35.519Z,3.03
2023-03-07T13:31:42.938Z,2.70
2023-03-07T13:36:45.199Z,3.80
2023-03-07T13:41:50.260Z,3.38
2023-03-07T13:46:55.782Z,3.47
2023-03-07T13:52:22.406Z,3.25
2023-03-07T13:57:30.910Z,3.58
2023-03-07T14:02:35.057Z,3.20
2023-03-07T14:07:41.273Z,3.33
2023-03-07T14:13:05.639Z,3.08
2023-03-07T14:18:26.346Z,4.10
2023-03-07T14:24:02.870Z,4.65
2023-03-07T14:29:24.617Z,3.95
2023-03-07T14:34:32.262Z,4.30
2023-03-07T14:39:54.793Z,3.85
2023-03-07T14:45:08.889Z,4.63
2023-03-07T14:50:19.027Z,3.63
2023-03-07T14:55:25.054Z,3.17
2023-03-07T15:00:28.960Z,3.35
2023-03-07T15:05:32.457Z,3.47
2023-03-07T15:10:41.917Z,2.70
2023-03-07T15:15:48.976Z,3.15
2023-03-07T15:20:53.424Z,3.60
2023-03-07T15:26:21.118Z,3.60
2023-03-07T15:31:23.622Z,2.95
2023-03-07T15:36:26.691Z,3.47
2023-03-07T15:41:36.989Z,3.10
2023-03-07T15:47:01.049Z,3.95
2023-03-07T15:52:04.210Z,5.25
2023-03-07T15:57:16.334Z,5.82
2023-03-07T16:02:39.955Z,5.63
2023-03-07T16:07:42.069Z,5.80
2023-03-07T16:12:46.588Z,5.15
2023-03-07T16:17:55.065Z,5.05
2023-03-07T16:22:57.945Z,4.73
2023-03-07T16:28:00.574Z,4.30
2023-03-07T16:33:02.709Z,4.68
2023-03-07T16:38:05.070Z,4.43
2023-03-07T16:43:33.560Z,4.38
2023-03-07T16:48:36.292Z,2.63
2023-03-07T16:53:38.370Z,3.13
2023-03-07T16:58:42.444Z,2.40
2023-03-07T17:03:46.173Z,2.20
2023-03-07T17:08:50.833Z,2.28
2023-03-07T17:13:55.660Z,2.40
2023-03-07T17:18:58.377Z,3.53
2023-03-07T17:24:00.474Z,2.42
2023-03-07T17:29:08.177Z,3.83
2023-03-07T17:34:22.025Z,2.28
2023-03-07T17:39:24.744Z,8.32
2023-03-07T17:44:28.001Z,7.15
2023-03-07T17:49:35.202Z,3.78
2023-03-07T17:54:37.331Z,3.45
2023-03-07T17:59:39.427Z,4.40
2023-03-07T18:04:41.979Z,3.42
2023-03-07T18:09:44.337Z,5.75
2023-03-07T18:14:46.626Z,4.53
2023-03-07T18:19:48.710Z,12.05
2023-03-07T18:24:53.673Z,10.82
2023-03-07T18:29:56.368Z,14.48
2023-03-07T18:34:58.585Z,11.02
2023-03-07T18:40:00.720Z,12.15
2023-03-07T18:45:02.853Z,18.58
2023-03-07T18:50:05.759Z,11.65
2023-03-07T18:55:08.212Z,11.80
2023-03-07T19:00:11.475Z,10.20
2023-03-07T19:05:13.658Z,12.40
2023-03-07T19:10:15.815Z,11.40
2023-03-07T19:15:18.002Z,12.40
2023-03-07T19:20:20.176Z,12.77
2023-03-07T19:25:22.415Z,14.30
2023-03-07T19:30:24.503Z,16.23
2023-03-07T19:35:26.586Z,22.77
2023-03-07T19:40:28.673Z,19.30
2023-03-07T19:45:30.734Z,14.07
2023-03-07T19:50:32.817Z,17.27
2023-03-07T19:55:34.947Z,12.27
2023-03-07T20:00:42.585Z,11.05
2023-03-07T20:05:48.284Z,10.90
2023-03-07T20:10:58.049Z,8.85
2023-03-07T20:16:09.956Z,8.75
2023-03-07T20:21:14.347Z,19.98
2023-03-07T20:26:25.100Z,14.48
2023-03-07T20:31:28.064Z,17.27
2023-03-07T20:36:33.217Z,16.40
2023-03-07T20:41:35.449Z,18.73
2023-03-07T20:46:38.726Z,15.75
2023-03-07T20:51:43.473Z,24.05
2023-03-07T20:56:46.954Z,18.55
2023-03-07T21:01:49.292Z,14.23
2023-03-07T21:06:51.461Z,13.07
2023-03-07T21:11:53.517Z,7.95
2023-03-07T21:16:55.603Z,11.52
2023-03-07T21:21:58.977Z,6.55
2023-03-07T21:27:01.086Z,7.72
2023-03-07T21:32:03.321Z,7.00
2023-03-07T21:37:05.396Z,7.90
2023-03-07T21:42:07.461Z,5.13
2023-03-07T21:47:09.567Z,8.60
2023-03-07T21:52:11.656Z,4.35
2023-03-07T21:57:13.767Z,3.42
2023-03-07T22:02:16.040Z,4.10
2023-03-07T22:07:18.575Z,2.97
2023-03-07T22:12:20.610Z,2.78
2023-03-07T22:17:22.864Z,3.30
2023-03-07T22:22:24.945Z,2.75
2023-03-07T22:27:27.002Z,4.43
2023-03-07T22:32:29.114Z,3.83
2023-03-07T22:37:31.191Z,3.70
2023-03-07T22:42:33.771Z,3.13
2023-03-07T22:47:35.834Z,1.63
2023-03-07T22:52:37.921Z,1.95
2023-03-07T22:57:40.003Z,1.33
2023-03-07T23:02:42.144Z,1.20
2023-03-07T23:07:44.253Z,1.20
2023-03-07T23:12:50.051Z,0.80
2023-03-07T23:17:52.372Z,1.85
2023-03-07T23:22:54.527Z,1.10
2023-03-07T23:27:57.822Z,1.50
2023-03-07T23:32:59.856Z,1.23
2023-03-07T23:38:02.215Z,1.23
2023-03-07T23:43:04.300Z,1.25
2023-03-07T23:48:06.667Z,1.88
2023-03-07T23:53:08.706Z,5.13
2023-03-07T23:58:10.826Z,1.00
